sensor_id;sensor_type;location;lat;lon;timestamp;P1;durP1;ratioP1;P2;durP2;ratioP2
40939;SDS011;26666;50.156;7.700;2023-04-09T00:04:54;6.82;;;2.72;;
40939;SDS011;26666;50.156;7.700;2023-04-09T00:09:57;5.97;;;1.73;;
40939;SDS011;26666;50.156;7.700;2023-04-09T00:14:58;3.22;;;1.83;;
40939;SDS011;26666;50.156;7.700;2023-04-09T00:20:00;3.05;;;1.33;;
40939;SDS011;26666;50.156;7.700;2023-04-09T00:25:03;3.60;;;2.00;;
40939;SDS011;26666;50.156;7.700;2023-04-09T00:30:06;7.05;;;1.52;;
40939;SDS011;26666;50.156;7.700;2023-04-09T00:35:09;3.35;;;1.50;;
40939;SDS011;26666;50.156;7.700;2023-04-09T00:40:12;3.88;;;1.63;;
40939;SDS011;26666;50.156;7.700;2023-04-09T00:45:14;3.42;;;1.67;;
40939;SDS011;26666;50.156;7.700;2023-04-09T00:50:15;4.75;;;2.03;;
40939;SDS011;26666;50.156;7.700;2023-04-09T00:55:18;4.10;;;1.90;;
40939;SDS011;26666;50.156;7.700;2023-04-09T01:00:21;4.45;;;1.67;;
40939;SDS011;26666;50.156;7.700;2023-04-09T01:05:23;3.67;;;1.42;;
40939;SDS011;26666;50.156;7.700;2023-04-09T01:10:31;3.03;;;1.13;;
40939;SDS011;26666;50.156;7.700;2023-04-09T01:15:38;2.75;;;1.30;;
40939;SDS011;26666;50.156;7.700;2023-04-09T01:20:46;0.85;;;0.80;;
40939;SDS011;26666;50.156;7.700;2023-04-09T01:25:56;3.78;;;1.73;;
40939;SDS011;26666;50.156;7.700;2023-04-09T01:31:08;3.60;;;1.10;;
40939;SDS011;26666;50.156;7.700;2023-04-09T01:36:13;2.95;;;1.73;;
40939;SDS011;26666;50.156;7.700;2023-04-09T01:41:16;4.13;;;2.20;;
40939;SDS011;26666;50.156;7.700;2023-04-09T01:46:21;2.15;;;1.45;;
40939;SDS011;26666;50.156;7.700;2023-04-09T01:51:23;3.50;;;1.65;;
40939;SDS011;26666;50.156;7.700;2023-04-09T01:56:25;3.63;;;1.58;;
40939;SDS011;26666;50.156;7.700;2023-04-09T02:01:30;6.00;;;1.88;;
40939;SDS011;26666;50.156;7.700;2023-04-09T02:06:37;3.33;;;2.00;;
40939;SDS011;26666;50.156;7.700;2023-04-09T02:11:41;2.45;;;1.30;;
40939;SDS011;26666;50.156;7.700;2023-04-09T02:16:45;4.78;;;1.50;;
40939;SDS011;26666;50.156;7.700;2023-04-09T02:21:47;1.85;;;1.30;;
40939;SDS011;26666;50.156;7.700;2023-04-09T02:26:49;5.45;;;1.73;;
40939;SDS011;26666;50.156;7.700;2023-04-09T02:31:52;5.05;;;1.75;;
40939;SDS011;26666;50.156;7.700;2023-04-09T02:36:53;3.88;;;1.92;;
40939;SDS011;26666;50.156;7.700;2023-04-09T02:41:55;3.40;;;0.80;;
40939;SDS011;26666;50.156;7.700;2023-04-09T02:46:58;3.83;;;1.33;;
40939;SDS011;26666;50.156;7.700;2023-04-09T02:51:59;2.15;;;1.20;;
40939;SDS011;26666;50.156;7.700;2023-04-09T02:57:01;5.75;;;1.80;;
40939;SDS011;26666;50.156;7.700;2023-04-09T03:02:04;1.27;;;1.17;;
40939;SDS011;26666;50.156;7.700;2023-04-09T03:07:06;2.10;;;1.40;;
40939;SDS011;26666;50.156;7.700;2023-04-09T03:12:07;3.75;;;1.33;;
40939;SDS011;26666;50.156;7.700;2023-04-09T03:17:11;2.60;;;1.60;;
40939;SDS011;26666;50.156;7.700;2023-04-09T03:22:12;5.65;;;1.33;;
40939;SDS011;26666;50.156;7.700;2023-04-09T03:27:14;2.35;;;1.38;;
40939;SDS011;26666;50.156;7.700;2023-04-09T03:32:17;2.35;;;1.23;;
40939;SDS011;26666;50.156;7.700;2023-04-09T03:37:19;3.67;;;1.30;;
40939;SDS011;26666;50.156;7.700;2023-04-09T03:42:21;2.90;;;1.52;;
40939;SDS011;26666;50.156;7.700;2023-04-09T03:47:24;2.28;;;1.35;;
40939;SDS011;26666;50.156;7.700;2023-04-09T03:52:25;2.63;;;1.10;;
40939;SDS011;26666;50.156;7.700;2023-04-09T03:57:27;1.95;;;1.00;;
40939;SDS011;26666;50.156;7.700;2023-04-09T04:02:30;2.33;;;1.27;;
40939;SDS011;26666;50.156;7.700;2023-04-09T04:07:32;2.83;;;0.90;;
40939;SDS011;26666;50.156;7.700;2023-04-09T04:12:34;4.63;;;1.67;;
40939;SDS011;26666;50.156;7.700;2023-04-09T04:17:37;3.88;;;1.27;;
40939;SDS011;26666;50.156;7.700;2023-04-09T04:22:38;4.43;;;1.50;;
40939;SDS011;26666;50.156;7.700;2023-04-09T04:27:40;2.00;;;0.88;;
40939;SDS011;26666;50.156;7.700;2023-04-09T04:32:43;3.85;;;1.67;;
40939;SDS011;26666;50.156;7.700;2023-04-09T04:37:45;4.90;;;1.65;;
40939;SDS011;26666;50.156;7.700;2023-04-09T04:42:49;1.63;;;0.93;;
40939;SDS011;26666;50.156;7.700;2023-04-09T04:47:52;4.40;;;1.33;;
40939;SDS011;26666;50.156;7.700;2023-04-09T04:52:54;2.88;;;1.40;;
40939;SDS011;26666;50.156;7.700;2023-04-09T04:57:55;2.63;;;1.35;;
40939;SDS011;26666;50.156;7.700;2023-04-09T05:02:58;2.13;;;1.20;;
40939;SDS011;26666;50.156;7.700;2023-04-09T05:08:00;2.80;;;1.23;;
40939;SDS011;26666;50.156;7.700;2023-04-09T05:13:02;8.07;;;5.00;;
40939;SDS011;26666;50.156;7.700;2023-04-09T05:18:05;2.67;;;1.33;;
40939;SDS011;26666;50.156;7.700;2023-04-09T05:23:07;3.17;;;1.38;;
40939;SDS011;26666;50.156;7.700;2023-04-09T05:28:09;5.15;;;1.35;;
40939;SDS011;26666;50.156;7.700;2023-04-09T05:33:12;4.10;;;1.75;;
40939;SDS011;26666;50.156;7.700;2023-04-09T05:38:13;2.05;;;1.00;;
40939;SDS011;26666;50.156;7.700;2023-04-09T05:43:15;2.50;;;1.20;;
40939;SDS011;26666;50.156;7.700;2023-04-09T05:48:18;2.67;;;0.95;;
40939;SDS011;26666;50.156;7.700;2023-04-09T05:53:20;1.50;;;0.70;;
40939;SDS011;26666;50.156;7.700;2023-04-09T05:58:22;3.30;;;0.93;;
40939;SDS011;26666;50.156;7.700;2023-04-09T06:03:25;1.75;;;0.63;;
40939;SDS011;26666;50.156;7.700;2023-04-09T06:08:27;1.23;;;0.70;;
40939;SDS011;26666;50.156;7.700;2023-04-09T06:13:28;0.57;;;0.45;;
40939;SDS011;26666;50.156;7.700;2023-04-09T06:18:31;5.88;;;1.20;;
40939;SDS011;26666;50.156;7.700;2023-04-09T06:23:33;1.20;;;0.85;;
40939;SDS011;26666;50.156;7.700;2023-04-09T06:28:36;0.82;;;0.80;;
40939;SDS011;26666;50.156;7.700;2023-04-09T06:33:38;1.63;;;0.63;;
40939;SDS011;26666;50.156;7.700;2023-04-09T06:38:40;0.30;;;0.30;;
40939;SDS011;26666;50.156;7.700;2023-04-09T06:43:42;0.70;;;0.40;;
40939;SDS011;26666;50.156;7.700;2023-04-09T06:48:45;0.77;;;0.35;;
40939;SDS011;26666;50.156;7.700;2023-04-09T06:53:47;2.25;;;1.58;;
40939;SDS011;26666;50.156;7.700;2023-04-09T06:58:49;1.95;;;0.88;;
40939;SDS011;26666;50.156;7.700;2023-04-09T07:03:52;2.00;;;1.40;;
40939;SDS011;26666;50.156;7.700;2023-04-09T07:08:54;3.03;;;1.53;;
40939;SDS011;26666;50.156;7.700;2023-04-09T07:13:56;3.90;;;1.98;;
40939;SDS011;26666;50.156;7.700;2023-04-09T07:18:59;1.95;;;1.35;;
40939;SDS011;26666;50.156;7.700;2023-04-09T07:24:01;4.07;;;2.20;;
40939;SDS011;26666;50.156;7.700;2023-04-09T07:29:03;2.88;;;1.65;;
40939;SDS011;26666;50.156;7.700;2023-04-09T07:34:06;5.30;;;2.30;;
40939;SDS011;26666;50.156;7.700;2023-04-09T07:39:07;3.33;;;1.85;;
40939;SDS011;26666;50.156;7.700;2023-04-09T07:44:09;4.35;;;2.17;;
40939;SDS011;26666;50.156;7.700;2023-04-09T07:49:12;5.53;;;2.63;;
40939;SDS011;26666;50.156;7.700;2023-04-09T07:54:14;7.93;;;3.40;;
40939;SDS011;26666;50.156;7.700;2023-04-09T07:59:15;4.28;;;2.53;;
40939;SDS011;26666;50.156;7.700;2023-04-09T08:04:19;4.57;;;2.85;;
40939;SDS011;26666;50.156;7.700;2023-04-09T08:09:21;5.25;;;2.80;;
40939;SDS011;26666;50.156;7.700;2023-04-09T08:14:23;6.20;;;3.20;;
40939;SDS011;26666;50.156;7.700;2023-04-09T08:19:26;3.72;;;3.00;;
40939;SDS011;26666;50.156;7.700;2023-04-09T08:24:27;5.15;;;3.17;;
40939;SDS011;26666;50.156;7.700;2023-04-09T08:29:29;5.25;;;3.22;;
40939;SDS011;26666;50.156;7.700;2023-04-09T08:34:36;8.10;;;3.95;;
40939;SDS011;26666;50.156;7.700;2023-04-09T08:39:38;9.48;;;3.28;;
40939;SDS011;26666;50.156;7.700;2023-04-09T08:44:39;6.90;;;3.03;;
40939;SDS011;26666;50.156;7.700;2023-04-09T08:49:42;7.22;;;3.83;;
40939;SDS011;26666;50.156;7.700;2023-04-09T08:54:44;10.20;;;3.47;;
40939;SDS011;26666;50.156;7.700;2023-04-09T08:59:46;4.70;;;2.85;;
40939;SDS011;26666;50.156;7.700;2023-04-09T09:04:49;6.35;;;3.42;;
40939;SDS011;26666;50.156;7.700;2023-04-09T09:09:52;5.43;;;3.20;;
40939;SDS011;26666;50.156;7.700;2023-04-09T09:14:54;6.85;;;3.13;;
40939;SDS011;26666;50.156;7.700;2023-04-09T09:19:57;6.60;;;2.95;;
40939;SDS011;26666;50.156;7.700;2023-04-09T09:24:59;9.35;;;3.40;;
40939;SDS011;26666;50.156;7.700;2023-04-09T09:30:01;5.30;;;2.58;;
40939;SDS011;26666;50.156;7.700;2023-04-09T09:35:06;7.32;;;3.70;;
40939;SDS011;26666;50.156;7.700;2023-04-09T09:40:08;6.20;;;2.67;;
40939;SDS011;26666;50.156;7.700;2023-04-09T09:45:16;7.03;;;2.65;;
40939;SDS011;26666;50.156;7.700;2023-04-09T09:50:20;10.20;;;3.20;;
40939;SDS011;26666;50.156;7.700;2023-04-09T09:55:24;5.47;;;2.67;;
40939;SDS011;26666;50.156;7.700;2023-04-09T10:00:29;4.60;;;2.63;;
40939;SDS011;26666;50.156;7.700;2023-04-09T10:05:34;3.78;;;2.00;;
40939;SDS011;26666;50.156;7.700;2023-04-09T10:10:39;4.63;;;2.40;;
40939;SDS011;26666;50.156;7.700;2023-04-09T10:15:41;4.38;;;2.00;;
40939;SDS011;26666;50.156;7.700;2023-04-09T10:20:47;4.50;;;1.75;;
40939;SDS011;26666;50.156;7.700;2023-04-09T10:25:54;2.30;;;1.50;;
40939;SDS011;26666;50.156;7.700;2023-04-09T10:30:56;2.17;;;1.08;;
40939;SDS011;26666;50.156;7.700;2023-04-09T10:36:01;2.88;;;1.70;;
40939;SDS011;26666;50.156;7.700;2023-04-09T10:41:13;3.90;;;1.55;;
40939;SDS011;26666;50.156;7.700;2023-04-09T10:46:24;3.65;;;1.30;;
40939;SDS011;26666;50.156;7.700;2023-04-09T10:51:28;2.80;;;1.45;;
40939;SDS011;26666;50.156;7.700;2023-04-09T10:56:35;3.13;;;1.40;;
40939;SDS011;26666;50.156;7.700;2023-04-09T11:01:36;1.63;;;0.73;;
40939;SDS011;26666;50.156;7.700;2023-04-09T11:06:40;27.63;;;2.50;;
40939;SDS011;26666;50.156;7.700;2023-04-09T11:11:50;0.52;;;0.47;;
40939;SDS011;26666;50.156;7.700;2023-04-09T11:16:53;2.08;;;0.77;;
40939;SDS011;26666;50.156;7.700;2023-04-09T11:21:56;2.20;;;0.70;;
40939;SDS011;26666;50.156;7.700;2023-04-09T11:26:59;2.38;;;1.13;;
40939;SDS011;26666;50.156;7.700;2023-04-09T11:32:01;1.48;;;0.82;;
40939;SDS011;26666;50.156;7.700;2023-04-09T11:37:04;3.95;;;1.25;;
40939;SDS011;26666;50.156;7.700;2023-04-09T11:42:06;4.38;;;0.80;;
40939;SDS011;26666;50.156;7.700;2023-04-09T11:47:07;2.33;;;1.10;;
40939;SDS011;26666;50.156;7.700;2023-04-09T11:52:11;5.85;;;1.70;;
40939;SDS011;26666;50.156;7.700;2023-04-09T11:57:13;4.25;;;1.90;;
40939;SDS011;26666;50.156;7.700;2023-04-09T12:02:16;5.13;;;1.85;;
40939;SDS011;26666;50.156;7.700;2023-04-09T12:07:22;2.85;;;1.48;;
40939;SDS011;26666;50.156;7.700;2023-04-09T12:12:42;2.78;;;1.13;;
40939;SDS011;26666;50.156;7.700;2023-04-09T12:17:46;1.42;;;0.90;;
40939;SDS011;26666;50.156;7.700;2023-04-09T12:22:50;4.30;;;1.70;;
40939;SDS011;26666;50.156;7.700;2023-04-09T12:27:54;2.38;;;1.52;;
40939;SDS011;26666;50.156;7.700;2023-04-09T12:32:57;5.20;;;1.42;;
40939;SDS011;26666;50.156;7.700;2023-04-09T12:38:00;4.88;;;1.40;;
40939;SDS011;26666;50.156;7.700;2023-04-09T12:43:02;3.15;;;1.30;;
40939;SDS011;26666;50.156;7.700;2023-04-09T12:48:04;2.83;;;1.42;;
40939;SDS011;26666;50.156;7.700;2023-04-09T12:53:07;2.75;;;1.27;;
40939;SDS011;26666;50.156;7.700;2023-04-09T12:58:09;4.00;;;1.42;;
40939;SDS011;26666;50.156;7.700;2023-04-09T13:03:10;3.40;;;1.88;;
40939;SDS011;26666;50.156;7.700;2023-04-09T13:08:14;3.08;;;1.45;;
40939;SDS011;26666;50.156;7.700;2023-04-09T13:13:15;3.55;;;1.38;;
40939;SDS011;26666;50.156;7.700;2023-04-09T13:18:17;4.28;;;1.98;;
40939;SDS011;26666;50.156;7.700;2023-04-09T13:23:20;2.67;;;1.63;;
40939;SDS011;26666;50.156;7.700;2023-04-09T13:28:21;4.75;;;1.80;;
40939;SDS011;26666;50.156;7.700;2023-04-09T13:33:23;2.15;;;1.10;;
40939;SDS011;26666;50.156;7.700;2023-04-09T13:38:26;2.33;;;0.98;;
40939;SDS011;26666;50.156;7.700;2023-04-09T13:43:28;1.95;;;1.00;;
40939;SDS011;26666;50.156;7.700;2023-04-09T13:48:30;1.98;;;0.75;;
40939;SDS011;26666;50.156;7.700;2023-04-09T13:53:33;6.65;;;1.77;;
40939;SDS011;26666;50.156;7.700;2023-04-09T13:58:34;2.28;;;1.55;;
40939;SDS011;26666;50.156;7.700;2023-04-09T14:03:36;2.95;;;1.40;;
40939;SDS011;26666;50.156;7.700;2023-04-09T14:08:40;2.90;;;0.98;;
40939;SDS011;26666;50.156;7.700;2023-04-09T14:18:45;2.45;;;1.23;;
40939;SDS011;26666;50.156;7.700;2023-04-09T14:23:48;2.50;;;0.90;;
40939;SDS011;26666;50.156;7.700;2023-04-09T14:28:50;2.35;;;1.02;;
40939;SDS011;26666;50.156;7.700;2023-04-09T14:33:52;2.17;;;1.15;;
40939;SDS011;26666;50.156;7.700;2023-04-09T14:38:55;4.60;;;1.25;;
40939;SDS011;26666;50.156;7.700;2023-04-09T14:43:58;2.65;;;1.15;;
40939;SDS011;26666;50.156;7.700;2023-04-09T14:49:00;4.00;;;1.67;;
40939;SDS011;26666;50.156;7.700;2023-04-09T14:54:03;2.42;;;1.27;;
40939;SDS011;26666;50.156;7.700;2023-04-09T14:59:05;2.35;;;1.00;;
40939;SDS011;26666;50.156;7.700;2023-04-09T15:04:08;2.90;;;1.40;;
40939;SDS011;26666;50.156;7.700;2023-04-09T15:09:11;6.80;;;1.83;;
40939;SDS011;26666;50.156;7.700;2023-04-09T15:14:13;2.75;;;1.02;;
40939;SDS011;26666;50.156;7.700;2023-04-09T15:19:15;5.90;;;2.08;;
40939;SDS011;26666;50.156;7.700;2023-04-09T15:24:18;3.75;;;1.45;;
40939;SDS011;26666;50.156;7.700;2023-04-09T15:29:19;2.63;;;1.48;;
40939;SDS011;26666;50.156;7.700;2023-04-09T15:34:21;3.92;;;1.90;;
40939;SDS011;26666;50.156;7.700;2023-04-09T15:39:24;3.90;;;1.50;;
40939;SDS011;26666;50.156;7.700;2023-04-09T15:44:26;6.18;;;2.50;;
40939;SDS011;26666;50.156;7.700;2023-04-09T15:49:27;5.60;;;1.80;;
40939;SDS011;26666;50.156;7.700;2023-04-09T15:54:30;4.50;;;2.25;;
40939;SDS011;26666;50.156;7.700;2023-04-09T15:59:32;3.83;;;1.90;;
40939;SDS011;26666;50.156;7.700;2023-04-09T16:04:34;2.83;;;1.50;;
40939;SDS011;26666;50.156;7.700;2023-04-09T16:09:37;3.28;;;1.83;;
40939;SDS011;26666;50.156;7.700;2023-04-09T16:14:38;2.60;;;1.60;;
40939;SDS011;26666;50.156;7.700;2023-04-09T16:19:40;2.03;;;1.17;;
40939;SDS011;26666;50.156;7.700;2023-04-09T16:24:44;1.65;;;1.13;;
40939;SDS011;26666;50.156;7.700;2023-04-09T16:29:46;2.20;;;1.10;;
40939;SDS011;26666;50.156;7.700;2023-04-09T16:34:47;2.08;;;1.20;;
40939;SDS011;26666;50.156;7.700;2023-04-09T16:39:50;4.03;;;1.90;;
40939;SDS011;26666;50.156;7.700;2023-04-09T16:44:52;4.75;;;1.73;;
40939;SDS011;26666;50.156;7.700;2023-04-09T16:49:54;1.75;;;1.23;;
40939;SDS011;26666;50.156;7.700;2023-04-09T16:54:57;3.38;;;1.88;;
40939;SDS011;26666;50.156;7.700;2023-04-09T16:59:58;4.07;;;1.40;;
40939;SDS011;26666;50.156;7.700;2023-04-09T17:05:00;3.55;;;1.35;;
40939;SDS011;26666;50.156;7.700;2023-04-09T17:10:04;2.08;;;1.05;;
40939;SDS011;26666;50.156;7.700;2023-04-09T17:15:07;3.83;;;1.10;;
40939;SDS011;26666;50.156;7.700;2023-04-09T17:20:10;3.45;;;1.75;;
40939;SDS011;26666;50.156;7.700;2023-04-09T17:25:14;3.83;;;1.35;;
40939;SDS011;26666;50.156;7.700;2023-04-09T17:30:16;9.80;;;2.00;;
40939;SDS011;26666;50.156;7.700;2023-04-09T17:35:18;2.90;;;1.52;;
40939;SDS011;26666;50.156;7.700;2023-04-09T17:40:21;2.42;;;1.33;;
40939;SDS011;26666;50.156;7.700;2023-04-09T17:45:24;2.28;;;1.42;;
40939;SDS011;26666;50.156;7.700;2023-04-09T17:50:25;2.00;;;0.77;;
40939;SDS011;26666;50.156;7.700;2023-04-09T17:55:29;5.35;;;1.27;;
40939;SDS011;26666;50.156;7.700;2023-04-09T18:00:30;4.50;;;1.48;;
40939;SDS011;26666;50.156;7.700;2023-04-09T18:05:32;2.67;;;0.98;;
40939;SDS011;26666;50.156;7.700;2023-04-09T18:10:35;3.88;;;1.52;;
40939;SDS011;26666;50.156;7.700;2023-04-09T18:15:37;1.65;;;1.00;;
40939;SDS011;26666;50.156;7.700;2023-04-09T18:20:39;1.95;;;0.95;;
40939;SDS011;26666;50.156;7.700;2023-04-09T18:25:42;2.80;;;1.55;;
40939;SDS011;26666;50.156;7.700;2023-04-09T18:30:44;2.28;;;1.02;;
40939;SDS011;26666;50.156;7.700;2023-04-09T18:35:45;3.60;;;1.70;;
40939;SDS011;26666;50.156;7.700;2023-04-09T18:40:48;4.22;;;1.30;;
40939;SDS011;26666;50.156;7.700;2023-04-09T18:45:50;3.95;;;1.67;;
40939;SDS011;26666;50.156;7.700;2023-04-09T18:50:52;2.33;;;1.30;;
40939;SDS011;26666;50.156;7.700;2023-04-09T18:55:55;6.97;;;1.55;;
40939;SDS011;26666;50.156;7.700;2023-04-09T19:00:57;1.27;;;1.17;;
40939;SDS011;26666;50.156;7.700;2023-04-09T19:05:59;2.20;;;1.27;;
40939;SDS011;26666;50.156;7.700;2023-04-09T19:11:02;1.98;;;1.05;;
40939;SDS011;26666;50.156;7.700;2023-04-09T19:16:04;4.32;;;1.85;;
40939;SDS011;26666;50.156;7.700;2023-04-09T19:21:07;5.90;;;1.25;;
40939;SDS011;26666;50.156;7.700;2023-04-09T19:26:10;1.92;;;1.25;;
40939;SDS011;26666;50.156;7.700;2023-04-09T19:31:11;2.60;;;1.20;;
40939;SDS011;26666;50.156;7.700;2023-04-09T19:36:13;3.13;;;1.45;;
40939;SDS011;26666;50.156;7.700;2023-04-09T19:41:16;4.63;;;1.67;;
40939;SDS011;26666;50.156;7.700;2023-04-09T19:46:18;1.42;;;0.90;;
40939;SDS011;26666;50.156;7.700;2023-04-09T19:51:19;2.33;;;1.13;;
40939;SDS011;26666;50.156;7.700;2023-04-09T19:56:22;2.42;;;1.00;;
40939;SDS011;26666;50.156;7.700;2023-04-09T20:01:25;2.28;;;1.33;;
40939;SDS011;26666;50.156;7.700;2023-04-09T20:06:27;2.10;;;1.38;;
40939;SDS011;26666;50.156;7.700;2023-04-09T20:11:30;2.42;;;1.10;;
40939;SDS011;26666;50.156;7.700;2023-04-09T20:16:31;9.57;;;3.55;;
40939;SDS011;26666;50.156;7.700;2023-04-09T20:21:33;9.95;;;3.92;;
40939;SDS011;26666;50.156;7.700;2023-04-09T20:26:36;10.82;;;3.97;;
40939;SDS011;26666;50.156;7.700;2023-04-09T20:31:38;4.03;;;1.83;;
40939;SDS011;26666;50.156;7.700;2023-04-09T20:36:39;3.58;;;2.30;;
40939;SDS011;26666;50.156;7.700;2023-04-09T20:41:42;5.90;;;1.85;;
40939;SDS011;26666;50.156;7.700;2023-04-09T20:46:44;3.45;;;1.50;;
40939;SDS011;26666;50.156;7.700;2023-04-09T20:51:46;2.28;;;1.23;;
40939;SDS011;26666;50.156;7.700;2023-04-09T20:56:49;3.38;;;1.13;;
40939;SDS011;26666;50.156;7.700;2023-04-09T21:01:50;1.67;;;1.05;;
40939;SDS011;26666;50.156;7.700;2023-04-09T21:06:52;3.88;;;1.60;;
40939;SDS011;26666;50.156;7.700;2023-04-09T21:11:55;3.55;;;1.70;;
40939;SDS011;26666;50.156;7.700;2023-04-09T21:16:57;3.53;;;1.42;;
40939;SDS011;26666;50.156;7.700;2023-04-09T21:21:58;3.30;;;1.48;;
40939;SDS011;26666;50.156;7.700;2023-04-09T21:27:02;4.55;;;1.90;;
40939;SDS011;26666;50.156;7.700;2023-04-09T21:32:04;3.45;;;2.30;;
40939;SDS011;26666;50.156;7.700;2023-04-09T21:37:06;2.75;;;1.25;;
40939;SDS011;26666;50.156;7.700;2023-04-09T21:42:09;1.77;;;1.08;;
40939;SDS011;26666;50.156;7.700;2023-04-09T21:47:10;5.65;;;1.15;;
40939;SDS011;26666;50.156;7.700;2023-04-09T21:52:12;2.85;;;1.40;;
40939;SDS011;26666;50.156;7.700;2023-04-09T21:57:16;2.17;;;1.20;;
40939;SDS011;26666;50.156;7.700;2023-04-09T22:02:18;3.47;;;1.17;;
40939;SDS011;26666;50.156;7.700;2023-04-09T22:07:20;5.13;;;1.77;;
40939;SDS011;26666;50.156;7.700;2023-04-09T22:12:23;3.17;;;1.20;;
40939;SDS011;26666;50.156;7.700;2023-04-09T22:17:25;2.45;;;1.10;;
40939;SDS011;26666;50.156;7.700;2023-04-09T22:22:26;3.55;;;1.80;;
40939;SDS011;26666;50.156;7.700;2023-04-09T22:27:29;1.73;;;1.23;;
40939;SDS011;26666;50.156;7.700;2023-04-09T22:32:31;6.72;;;1.48;;
40939;SDS011;26666;50.156;7.700;2023-04-09T22:37:33;4.22;;;2.00;;
40939;SDS011;26666;50.156;7.700;2023-04-09T22:42:36;1.80;;;1.30;;
40939;SDS011;26666;50.156;7.700;2023-04-09T22:47:37;1.40;;;0.85;;
40939;SDS011;26666;50.156;7.700;2023-04-09T22:52:39;4.28;;;1.45;;
40939;SDS011;26666;50.156;7.700;2023-04-09T22:57:42;4.00;;;1.63;;
40939;SDS011;26666;50.156;7.700;2023-04-09T23:02:44;3.78;;;1.45;;
40939;SDS011;26666;50.156;7.700;2023-04-09T23:07:46;2.08;;;0.98;;
40939;SDS011;26666;50.156;7.700;2023-04-09T23:12:49;2.10;;;1.40;;
40939;SDS011;26666;50.156;7.700;2023-04-09T23:17:51;2.95;;;1.77;;
40939;SDS011;26666;50.156;7.700;2023-04-09T23:22:53;1.85;;;0.88;;
40939;SDS011;26666;50.156;7.700;2023-04-09T23:27:56;1.27;;;1.17;;
40939;SDS011;26666;50.156;7.700;2023-04-09T23:32:58;2.80;;;1.77;;
40939;SDS011;26666;50.156;7.700;2023-04-09T23:37:59;2.38;;;1.08;;
40939;SDS011;26666;50.156;7.700;2023-04-09T23:43:02;3.47;;;1.63;;
40939;SDS011;26666;50.156;7.700;2023-04-09T23:48:04;3.00;;;1.60;;
40939;SDS011;26666;50.156;7.700;2023-04-09T23:53:07;4.60;;;1.48;;
40939;SDS011;26666;50.156;7.700;2023-04-09T23:58:10;4.28;;;1.70;;
